Aviation Digital Data Service (ADDS)

Output produced by METARs form (0717 UTC 19 February 2019)
found at http://www.aviationweather.gov/metar/data/
 
Forecast for: EBBL (KLEINE-BROGEL(BA, BE)
Text: TAF EBBL 190541Z 1907/1916 24010KT 9999 FEW008 BKN130
Forecast period: 0700 to 0800 UTC 19 February 2019
Forecast type: FROM: standard forecast or significant change
Winds: from the WSW (240 degrees) at 12 MPH (10 knots; 5.1 m/s)
Visibility: 6 or more miles 10+ km)
Ceiling: 13000 feet AGL
Clouds: few clouds at 800 feet AGL
broken clouds at 13000 feet AGL
Weather: no significant weather forecast for this period
Text: BECMG 1908/1910 SKC
Forecast period: 0800 to 1100 UTC 19 February 2019
Forecast type: BECOMING: Conditions expected to become as follows by 1000 UTC 19 February 2019
Winds: from the WSW (240 degrees) at 12 MPH (10 knots; 5.1 m/s)
Visibility: 6 or more miles 10+ km)
Clouds: clear skies
Weather: no significant weather forecast for this period
Text: BECMG 1911/1913 SCT030
Forecast period: 1100 to 1600 UTC 19 February 2019
Forecast type: BECOMING: Conditions expected to become as follows by 1300 UTC 19 February 2019
Winds: from the WSW (240 degrees) at 12 MPH (10 knots; 5.1 m/s)
Visibility: 6 or more miles 10+ km)
Ceiling: at least 12,000 feet AGL
Clouds: scattered clouds at 3000 feet AGL
Weather: no significant weather forecast for this period